Aérodrome :
LOGIN :

S'inscrire | Disclaimer

   EN    FR    IT 

 










Légende :    VFR   VFR Marginal   IFR   IFR Intensif   IFR Très Intensif
Visi : 
Plafond : 
>= 8 km
>= 3000ft
5 à 8 km
1000 à 3000 ft
1500m à 5 km
500 à 1000 ft
800 à 1500m
200 à 500 ft
< 800m
< 200 ft
Symboles :   Orages  Brouillard  Fortes neiges  Fortes précipitations  Vent > 20 kt
SIGMETs :   Divers  Orages  Givrage  Turbulence  Onde Orograph.  Cendres Volcan.







- Altitude de l'aérodrome : 2697 ft
- Code IATA : BLJ


DABT - Batna

DERNIER METAR :
  • 200100Z 31004KT 9999 FEW010 SCT020 BKN023 05/03 Q1013

METARs EXPIRÉS :
  • 200000Z 29003KT 9999 FEW010 SCT020 BKN023 05/04 Q1014
  • 192300Z 24002KT 9999 SCT020 BKN023 05/04 Q1014

TAF TAF DABT
Valide du 20 à 00h jusqu'au 21 à 00h UTC


192300Z 2000/2024 28006KT 8000 SCT015 BKN033
TEMPO 2000/2006 5000 -RA FEW020CB
BECMG 1920/1922 VRB02KT
BECMG 2012/2014 34015KT
Pas de NOTAMs connus pour ce terrain.
1 SIGMET publié pour la FIR Alger (DAAA) :
 
Orages noyés dans la masse
DAAA SIGMET 4 VALID 192230/200200 DAMM
DAAA ALGER FIR EMBD TS OBS E OF LINE N3538 E00241 - N3235 E00234 TOP FL200 MOV E 20KT NC=



MET'MAP, la Météo Aéronautique d'un coup d'oeil ! - Copyright ORBIFLY Décembre 2007 - Disclaimer

ORBIFLY MET'MAP TEAM :

Programmation & Développement : Alexandra Zaïnal
Conception & Développement : Baudouin d'Aumeries
Co-Programmation & Développement : Marc-Olivier Méhu
Soutien technique & logistique : Manuel Goepfert

Contact : metmap@orbifly.com




SOURCES & CREDITS :

   NOAA